Terminal Aerodrome Forecast
Issued by NWS

Home | Current Version | Previous Version | Text Only | Print | Product List | Glossary On
Versions: 1 2 3 4 5 6 7 8 9 10 11 12 13 14 15 16 17 18 19 20 21 22 23
000
FTUS43 KDLH 280300 AAA
TAFHYR
TAF AMD
KHYR 280323Z 2803/2824 17005KT P6SM SCT014 BKN110
      TEMPO 2805/2808 BKN014
     FM280800 17004KT P6SM OVC014
     FM281600 15006KT 5SM BR OVC006=

USA.gov is the U.S. government's official web portal to all federal, state and local government web resources and services.